sensor_id;sensor_type;location;lat;lon;timestamp;temperature;humidity
14555;DHT22;7364;50.870;4.722;2023-07-24T00:00:21;18.60;99.90
14555;DHT22;7364;50.870;4.722;2023-07-24T00:02:48;18.50;99.90
14555;DHT22;7364;50.870;4.722;2023-07-24T00:05:16;18.60;99.90
14555;DHT22;7364;50.870;4.722;2023-07-24T00:07:43;18.60;99.90
14555;DHT22;7364;50.870;4.722;2023-07-24T00:10:12;18.60;99.90
14555;DHT22;7364;50.870;4.722;2023-07-24T00:12:39;18.60;99.90
14555;DHT22;7364;50.870;4.722;2023-07-24T00:15:07;18.60;99.90
14555;DHT22;7364;50.870;4.722;2023-07-24T00:17:34;18.70;99.90
14555;DHT22;7364;50.870;4.722;2023-07-24T00:20:02;18.70;99.90
14555;DHT22;7364;50.870;4.722;2023-07-24T00:22:29;18.70;99.90
14555;DHT22;7364;50.870;4.722;2023-07-24T00:24:57;18.70;99.90
14555;DHT22;7364;50.870;4.722;2023-07-24T00:27:25;18.60;99.90
14555;DHT22;7364;50.870;4.722;2023-07-24T00:29:53;18.60;99.90
14555;DHT22;7364;50.870;4.722;2023-07-24T00:32:20;18.60;99.90
14555;DHT22;7364;50.870;4.722;2023-07-24T00:34:48;18.60;99.90
14555;DHT22;7364;50.870;4.722;2023-07-24T00:37:15;18.50;99.90
14555;DHT22;7364;50.870;4.722;2023-07-24T00:39:42;18.60;99.90
14555;DHT22;7364;50.870;4.722;2023-07-24T00:42:10;18.60;99.90
14555;DHT22;7364;50.870;4.722;2023-07-24T00:44:38;18.60;99.90
14555;DHT22;7364;50.870;4.722;2023-07-24T00:47:06;18.60;99.90
14555;DHT22;7364;50.870;4.722;2023-07-24T00:49:33;18.70;99.90
14555;DHT22;7364;50.870;4.722;2023-07-24T00:52:01;18.70;99.90
14555;DHT22;7364;50.870;4.722;2023-07-24T00:54:30;18.70;99.90
14555;DHT22;7364;50.870;4.722;2023-07-24T00:56:58;18.70;99.90
14555;DHT22;7364;50.870;4.722;2023-07-24T00:59:25;18.70;99.90
14555;DHT22;7364;50.870;4.722;2023-07-24T01:01:54;18.70;99.90
14555;DHT22;7364;50.870;4.722;2023-07-24T01:04:22;18.90;99.90
14555;DHT22;7364;50.870;4.722;2023-07-24T01:06:50;18.90;99.90
14555;DHT22;7364;50.870;4.722;2023-07-24T01:09:17;18.90;99.90
14555;DHT22;7364;50.870;4.722;2023-07-24T01:11:47;18.80;99.90
14555;DHT22;7364;50.870;4.722;2023-07-24T01:14:21;18.90;99.90
14555;DHT22;7364;50.870;4.722;2023-07-24T01:16:49;18.80;99.90
14555;DHT22;7364;50.870;4.722;2023-07-24T01:19:33;18.90;99.90
14555;DHT22;7364;50.870;4.722;2023-07-24T01:22:09;18.90;99.90
14555;DHT22;7364;50.870;4.722;2023-07-24T01:24:52;18.80;99.90
14555;DHT22;7364;50.870;4.722;2023-07-24T01:27:27;18.80;99.90
14555;DHT22;7364;50.870;4.722;2023-07-24T01:29:55;18.90;99.90
14555;DHT22;7364;50.870;4.722;2023-07-24T01:32:22;18.90;99.90
14555;DHT22;7364;50.870;4.722;2023-07-24T01:34:50;18.90;99.90
14555;DHT22;7364;50.870;4.722;2023-07-24T01:37:20;18.80;99.90
14555;DHT22;7364;50.870;4.722;2023-07-24T01:39:48;18.80;99.90
14555;DHT22;7364;50.870;4.722;2023-07-24T01:42:15;18.90;99.90
14555;DHT22;7364;50.870;4.722;2023-07-24T01:44:44;18.90;99.90
14555;DHT22;7364;50.870;4.722;2023-07-24T01:47:12;18.80;99.90
14555;DHT22;7364;50.870;4.722;2023-07-24T01:49:39;18.90;99.90
14555;DHT22;7364;50.870;4.722;2023-07-24T01:52:07;18.90;99.90
14555;DHT22;7364;50.870;4.722;2023-07-24T01:54:34;18.90;99.90
14555;DHT22;7364;50.870;4.722;2023-07-24T01:57:01;18.90;99.90
14555;DHT22;7364;50.870;4.722;2023-07-24T01:59:28;18.80;99.90
14555;DHT22;7364;50.870;4.722;2023-07-24T02:01:57;18.70;99.90
14555;DHT22;7364;50.870;4.722;2023-07-24T02:04:24;18.70;99.90
14555;DHT22;7364;50.870;4.722;2023-07-24T02:06:52;18.70;99.90
14555;DHT22;7364;50.870;4.722;2023-07-24T02:09:19;18.80;99.90
14555;DHT22;7364;50.870;4.722;2023-07-24T02:11:47;18.70;99.90
14555;DHT22;7364;50.870;4.722;2023-07-24T02:14:14;18.60;99.90
14555;DHT22;7364;50.870;4.722;2023-07-24T02:16:42;18.70;99.90
14555;DHT22;7364;50.870;4.722;2023-07-24T02:19:11;18.60;99.90
14555;DHT22;7364;50.870;4.722;2023-07-24T02:21:39;18.60;99.90
14555;DHT22;7364;50.870;4.722;2023-07-24T02:24:07;18.50;99.90
14555;DHT22;7364;50.870;4.722;2023-07-24T02:26:34;18.60;99.90
14555;DHT22;7364;50.870;4.722;2023-07-24T02:29:01;18.60;99.90
14555;DHT22;7364;50.870;4.722;2023-07-24T02:31:29;18.70;99.90
14555;DHT22;7364;50.870;4.722;2023-07-24T02:33:56;18.60;99.90
14555;DHT22;7364;50.870;4.722;2023-07-24T02:36:25;18.60;99.90
14555;DHT22;7364;50.870;4.722;2023-07-24T02:38:52;18.60;99.90
14555;DHT22;7364;50.870;4.722;2023-07-24T02:41:19;18.60;99.90
14555;DHT22;7364;50.870;4.722;2023-07-24T02:43:47;18.50;99.90
14555;DHT22;7364;50.870;4.722;2023-07-24T02:46:16;18.60;99.90
14555;DHT22;7364;50.870;4.722;2023-07-24T02:48:43;18.60;99.90
14555;DHT22;7364;50.870;4.722;2023-07-24T02:51:10;18.60;99.90
14555;DHT22;7364;50.870;4.722;2023-07-24T02:53:39;18.70;99.90
14555;DHT22;7364;50.870;4.722;2023-07-24T02:56:06;18.60;99.90
14555;DHT22;7364;50.870;4.722;2023-07-24T02:58:33;18.60;99.90
14555;DHT22;7364;50.870;4.722;2023-07-24T03:01:04;18.70;99.90
14555;DHT22;7364;50.870;4.722;2023-07-24T03:03:32;18.70;99.90
14555;DHT22;7364;50.870;4.722;2023-07-24T03:05:59;18.60;99.90
14555;DHT22;7364;50.870;4.722;2023-07-24T03:08:26;18.60;99.90
14555;DHT22;7364;50.870;4.722;2023-07-24T03:10:55;18.60;99.90
14555;DHT22;7364;50.870;4.722;2023-07-24T03:13:23;18.50;99.90
14555;DHT22;7364;50.870;4.722;2023-07-24T03:15:54;18.40;99.90
14555;DHT22;7364;50.870;4.722;2023-07-24T03:18:22;18.40;99.90
14555;DHT22;7364;50.870;4.722;2023-07-24T03:20:49;18.50;99.90
14555;DHT22;7364;50.870;4.722;2023-07-24T03:23:17;18.40;99.90
14555;DHT22;7364;50.870;4.722;2023-07-24T03:25:44;18.40;99.90
14555;DHT22;7364;50.870;4.722;2023-07-24T03:28:13;18.50;99.90
14555;DHT22;7364;50.870;4.722;2023-07-24T03:30:40;18.50;99.90
14555;DHT22;7364;50.870;4.722;2023-07-24T03:33:08;18.40;99.90
14555;DHT22;7364;50.870;4.722;2023-07-24T03:35:35;18.40;99.90
14555;DHT22;7364;50.870;4.722;2023-07-24T03:38:02;18.40;99.90
14555;DHT22;7364;50.870;4.722;2023-07-24T03:40:30;18.50;99.90
14555;DHT22;7364;50.870;4.722;2023-07-24T03:42:57;18.50;99.90
14555;DHT22;7364;50.870;4.722;2023-07-24T03:45:26;18.50;99.90
14555;DHT22;7364;50.870;4.722;2023-07-24T03:47:53;18.50;99.90
14555;DHT22;7364;50.870;4.722;2023-07-24T03:50:20;18.30;99.90
14555;DHT22;7364;50.870;4.722;2023-07-24T03:52:48;18.20;99.90
14555;DHT22;7364;50.870;4.722;2023-07-24T03:55:15;18.10;99.90
14555;DHT22;7364;50.870;4.722;2023-07-24T03:57:42;18.00;99.90
14555;DHT22;7364;50.870;4.722;2023-07-24T04:00:11;18.00;99.90
14555;DHT22;7364;50.870;4.722;2023-07-24T04:02:40;17.90;99.90
14555;DHT22;7364;50.870;4.722;2023-07-24T04:05:07;17.70;99.90
14555;DHT22;7364;50.870;4.722;2023-07-24T04:07:35;17.60;99.90
14555;DHT22;7364;50.870;4.722;2023-07-24T04:10:03;17.50;99.90
14555;DHT22;7364;50.870;4.722;2023-07-24T04:12:30;17.50;99.90
14555;DHT22;7364;50.870;4.722;2023-07-24T04:14:58;17.50;99.90
14555;DHT22;7364;50.870;4.722;2023-07-24T04:17:25;17.50;99.90
14555;DHT22;7364;50.870;4.722;2023-07-24T04:19:54;17.50;99.90
14555;DHT22;7364;50.870;4.722;2023-07-24T04:22:22;17.50;99.90
14555;DHT22;7364;50.870;4.722;2023-07-24T04:24:49;17.50;99.90
14555;DHT22;7364;50.870;4.722;2023-07-24T04:27:16;17.50;99.90
14555;DHT22;7364;50.870;4.722;2023-07-24T04:29:43;17.60;99.90
14555;DHT22;7364;50.870;4.722;2023-07-24T04:32:11;17.70;99.90
14555;DHT22;7364;50.870;4.722;2023-07-24T04:34:38;17.70;99.90
14555;DHT22;7364;50.870;4.722;2023-07-24T04:37:07;17.80;99.90
14555;DHT22;7364;50.870;4.722;2023-07-24T04:39:34;17.70;99.90
14555;DHT22;7364;50.870;4.722;2023-07-24T04:42:02;17.80;99.90
14555;DHT22;7364;50.870;4.722;2023-07-24T04:44:30;17.60;99.90
14555;DHT22;7364;50.870;4.722;2023-07-24T04:46:58;17.60;99.90
14555;DHT22;7364;50.870;4.722;2023-07-24T04:49:25;17.60;99.90
14555;DHT22;7364;50.870;4.722;2023-07-24T04:51:54;17.60;99.90
14555;DHT22;7364;50.870;4.722;2023-07-24T04:54:23;17.70;99.90
14555;DHT22;7364;50.870;4.722;2023-07-24T04:56:50;17.70;99.90
14555;DHT22;7364;50.870;4.722;2023-07-24T04:59:17;17.70;99.90
14555;DHT22;7364;50.870;4.722;2023-07-24T05:01:45;17.70;99.90
14555;DHT22;7364;50.870;4.722;2023-07-24T05:04:13;17.70;99.90
14555;DHT22;7364;50.870;4.722;2023-07-24T05:06:40;17.70;99.90
14555;DHT22;7364;50.870;4.722;2023-07-24T05:09:07;17.80;99.90
14555;DHT22;7364;50.870;4.722;2023-07-24T05:11:36;17.80;99.90
14555;DHT22;7364;50.870;4.722;2023-07-24T05:14:06;17.80;99.90
14555;DHT22;7364;50.870;4.722;2023-07-24T05:16:33;17.80;99.90
14555;DHT22;7364;50.870;4.722;2023-07-24T05:19:01;17.80;99.90
14555;DHT22;7364;50.870;4.722;2023-07-24T05:21:28;17.90;99.90
14555;DHT22;7364;50.870;4.722;2023-07-24T05:23:56;18.00;99.90
14555;DHT22;7364;50.870;4.722;2023-07-24T05:26:23;18.10;99.90
14555;DHT22;7364;50.870;4.722;2023-07-24T05:28:52;18.20;99.90
14555;DHT22;7364;50.870;4.722;2023-07-24T05:31:19;18.30;99.90
14555;DHT22;7364;50.870;4.722;2023-07-24T05:33:47;18.40;99.90
14555;DHT22;7364;50.870;4.722;2023-07-24T05:36:14;18.60;99.90
14555;DHT22;7364;50.870;4.722;2023-07-24T05:38:42;18.70;99.90
14555;DHT22;7364;50.870;4.722;2023-07-24T05:41:09;18.80;99.90
14555;DHT22;7364;50.870;4.722;2023-07-24T05:43:37;19.00;99.90
14555;DHT22;7364;50.870;4.722;2023-07-24T05:46:05;18.60;99.90
14555;DHT22;7364;50.870;4.722;2023-07-24T05:48:33;18.60;99.90
14555;DHT22;7364;50.870;4.722;2023-07-24T05:51:00;18.60;99.90
14555;DHT22;7364;50.870;4.722;2023-07-24T05:53:27;18.80;99.90
14555;DHT22;7364;50.870;4.722;2023-07-24T05:55:58;18.90;99.90
14555;DHT22;7364;50.870;4.722;2023-07-24T05:58:26;18.90;99.90
14555;DHT22;7364;50.870;4.722;2023-07-24T06:00:54;18.80;99.90
14555;DHT22;7364;50.870;4.722;2023-07-24T06:03:23;18.80;99.90
14555;DHT22;7364;50.870;4.722;2023-07-24T06:05:51;18.90;99.90
14555;DHT22;7364;50.870;4.722;2023-07-24T06:08:20;19.10;99.90
14555;DHT22;7364;50.870;4.722;2023-07-24T06:10:47;19.20;99.90
14555;DHT22;7364;50.870;4.722;2023-07-24T06:13:15;19.40;99.90
14555;DHT22;7364;50.870;4.722;2023-07-24T06:15:43;19.30;99.90
14555;DHT22;7364;50.870;4.722;2023-07-24T06:18:10;19.50;99.90
14555;DHT22;7364;50.870;4.722;2023-07-24T06:20:39;19.40;99.90
14555;DHT22;7364;50.870;4.722;2023-07-24T06:23:06;19.50;99.90
14555;DHT22;7364;50.870;4.722;2023-07-24T06:25:34;19.30;99.90
14555;DHT22;7364;50.870;4.722;2023-07-24T06:28:01;19.30;99.90
14555;DHT22;7364;50.870;4.722;2023-07-24T06:30:29;19.20;99.90
14555;DHT22;7364;50.870;4.722;2023-07-24T06:32:56;19.30;99.90
14555;DHT22;7364;50.870;4.722;2023-07-24T06:35:24;19.40;99.90
14555;DHT22;7364;50.870;4.722;2023-07-24T06:37:52;19.40;99.90
14555;DHT22;7364;50.870;4.722;2023-07-24T06:40:20;19.20;99.90
14555;DHT22;7364;50.870;4.722;2023-07-24T06:42:47;19.40;99.90
14555;DHT22;7364;50.870;4.722;2023-07-24T06:45:14;19.40;99.90
14555;DHT22;7364;50.870;4.722;2023-07-24T06:47:42;19.50;99.90
14555;DHT22;7364;50.870;4.722;2023-07-24T06:50:10;19.70;99.90
14555;DHT22;7364;50.870;4.722;2023-07-24T06:52:37;19.80;99.90
14555;DHT22;7364;50.870;4.722;2023-07-24T06:55:07;19.60;99.90
14555;DHT22;7364;50.870;4.722;2023-07-24T06:57:34;19.90;99.90
14555;DHT22;7364;50.870;4.722;2023-07-24T07:00:03;19.60;99.90
14555;DHT22;7364;50.870;4.722;2023-07-24T07:02:30;19.50;99.90
14555;DHT22;7364;50.870;4.722;2023-07-24T07:04:57;19.00;99.90
14555;DHT22;7364;50.870;4.722;2023-07-24T07:07:24;19.20;99.90
14555;DHT22;7364;50.870;4.722;2023-07-24T07:09:52;19.30;99.90
14555;DHT22;7364;50.870;4.722;2023-07-24T07:12:21;19.40;99.90
14555;DHT22;7364;50.870;4.722;2023-07-24T07:14:48;19.20;99.90
14555;DHT22;7364;50.870;4.722;2023-07-24T07:17:16;19.40;99.90
14555;DHT22;7364;50.870;4.722;2023-07-24T07:19:44;19.60;99.90
14555;DHT22;7364;50.870;4.722;2023-07-24T07:22:11;19.80;99.90
14555;DHT22;7364;50.870;4.722;2023-07-24T07:24:39;19.90;99.90
14555;DHT22;7364;50.870;4.722;2023-07-24T07:27:06;19.80;99.90
14555;DHT22;7364;50.870;4.722;2023-07-24T07:29:35;20.20;99.90
14555;DHT22;7364;50.870;4.722;2023-07-24T07:32:02;20.00;99.90
14555;DHT22;7364;50.870;4.722;2023-07-24T07:34:29;19.60;99.90
14555;DHT22;7364;50.870;4.722;2023-07-24T07:36:57;19.60;99.90
14555;DHT22;7364;50.870;4.722;2023-07-24T07:39:24;19.90;99.90
14555;DHT22;7364;50.870;4.722;2023-07-24T07:41:51;20.40;99.90
14555;DHT22;7364;50.870;4.722;2023-07-24T07:44:19;20.30;99.90
14555;DHT22;7364;50.870;4.722;2023-07-24T07:46:47;20.30;99.90
14555;DHT22;7364;50.870;4.722;2023-07-24T07:49:15;20.50;99.90
14555;DHT22;7364;50.870;4.722;2023-07-24T07:51:42;20.50;99.90
14555;DHT22;7364;50.870;4.722;2023-07-24T07:54:09;20.30;99.90
14555;DHT22;7364;50.870;4.722;2023-07-24T07:56:36;20.10;99.90
14555;DHT22;7364;50.870;4.722;2023-07-24T07:59:04;20.20;99.90
14555;DHT22;7364;50.870;4.722;2023-07-24T08:01:31;19.90;99.90
14555;DHT22;7364;50.870;4.722;2023-07-24T08:04:00;19.50;99.90
14555;DHT22;7364;50.870;4.722;2023-07-24T08:06:27;19.20;99.90
14555;DHT22;7364;50.870;4.722;2023-07-24T08:08:54;19.00;99.90
14555;DHT22;7364;50.870;4.722;2023-07-24T08:11:21;19.10;99.90
14555;DHT22;7364;50.870;4.722;2023-07-24T08:13:48;19.10;99.90
14555;DHT22;7364;50.870;4.722;2023-07-24T08:16:16;19.30;99.90
14555;DHT22;7364;50.870;4.722;2023-07-24T08:18:45;19.50;99.90
14555;DHT22;7364;50.870;4.722;2023-07-24T08:21:14;19.90;99.90
14555;DHT22;7364;50.870;4.722;2023-07-24T08:23:42;19.90;99.90
14555;DHT22;7364;50.870;4.722;2023-07-24T08:26:09;20.30;99.90
14555;DHT22;7364;50.870;4.722;2023-07-24T08:28:37;20.20;99.90
14555;DHT22;7364;50.870;4.722;2023-07-24T08:31:08;20.20;99.90
14555;DHT22;7364;50.870;4.722;2023-07-24T08:33:35;20.40;99.90
14555;DHT22;7364;50.870;4.722;2023-07-24T08:36:03;20.70;99.90
14555;DHT22;7364;50.870;4.722;2023-07-24T08:38:33;20.70;99.90
14555;DHT22;7364;50.870;4.722;2023-07-24T08:41:01;21.20;99.90
14555;DHT22;7364;50.870;4.722;2023-07-24T08:43:29;21.30;99.90
14555;DHT22;7364;50.870;4.722;2023-07-24T08:45:58;21.70;99.90
14555;DHT22;7364;50.870;4.722;2023-07-24T08:48:27;21.30;99.90
14555;DHT22;7364;50.870;4.722;2023-07-24T08:50:56;21.50;99.90
14555;DHT22;7364;50.870;4.722;2023-07-24T08:53:24;21.20;99.90
14555;DHT22;7364;50.870;4.722;2023-07-24T08:55:54;20.90;99.90
14555;DHT22;7364;50.870;4.722;2023-07-24T08:58:21;20.70;99.90
14555;DHT22;7364;50.870;4.722;2023-07-24T09:00:49;20.60;99.90
14555;DHT22;7364;50.870;4.722;2023-07-24T09:03:17;20.50;99.90
14555;DHT22;7364;50.870;4.722;2023-07-24T09:05:45;20.40;99.90
14555;DHT22;7364;50.870;4.722;2023-07-24T09:08:12;20.30;99.90
14555;DHT22;7364;50.870;4.722;2023-07-24T09:10:40;19.90;99.90
14555;DHT22;7364;50.870;4.722;2023-07-24T09:13:12;19.40;99.90
14555;DHT22;7364;50.870;4.722;2023-07-24T09:15:40;19.10;99.90
14555;DHT22;7364;50.870;4.722;2023-07-24T09:18:07;18.90;99.90
14555;DHT22;7364;50.870;4.722;2023-07-24T09:20:39;18.70;99.90
14555;DHT22;7364;50.870;4.722;2023-07-24T09:23:07;18.50;99.90
14555;DHT22;7364;50.870;4.722;2023-07-24T09:25:36;18.30;99.90
14555;DHT22;7364;50.870;4.722;2023-07-24T09:28:11;18.20;99.90
14555;DHT22;7364;50.870;4.722;2023-07-24T09:30:38;18.30;99.90
14555;DHT22;7364;50.870;4.722;2023-07-24T09:33:08;18.50;99.90
14555;DHT22;7364;50.870;4.722;2023-07-24T09:35:35;18.70;99.90
14555;DHT22;7364;50.870;4.722;2023-07-24T09:38:04;18.90;99.90
14555;DHT22;7364;50.870;4.722;2023-07-24T09:40:39;19.00;99.90
14555;DHT22;7364;50.870;4.722;2023-07-24T09:43:20;19.10;99.90
14555;DHT22;7364;50.870;4.722;2023-07-24T09:45:48;18.80;99.90
14555;DHT22;7364;50.870;4.722;2023-07-24T09:48:17;18.60;99.90
14555;DHT22;7364;50.870;4.722;2023-07-24T09:50:46;18.50;99.90
14555;DHT22;7364;50.870;4.722;2023-07-24T09:53:18;18.60;99.90
14555;DHT22;7364;50.870;4.722;2023-07-24T09:55:52;18.70;99.90
14555;DHT22;7364;50.870;4.722;2023-07-24T09:58:24;18.90;99.90
14555;DHT22;7364;50.870;4.722;2023-07-24T10:00:53;19.00;99.90
14555;DHT22;7364;50.870;4.722;2023-07-24T10:03:22;19.30;99.90
14555;DHT22;7364;50.870;4.722;2023-07-24T10:05:49;19.50;99.90
14555;DHT22;7364;50.870;4.722;2023-07-24T10:08:18;19.80;99.90
14555;DHT22;7364;50.870;4.722;2023-07-24T10:10:46;20.20;99.90
14555;DHT22;7364;50.870;4.722;2023-07-24T10:13:17;20.70;99.90
14555;DHT22;7364;50.870;4.722;2023-07-24T10:15:47;20.90;99.90
14555;DHT22;7364;50.870;4.722;2023-07-24T10:18:16;21.20;99.90
14555;DHT22;7364;50.870;4.722;2023-07-24T10:20:43;21.40;99.90
14555;DHT22;7364;50.870;4.722;2023-07-24T10:23:17;21.60;99.90
14555;DHT22;7364;50.870;4.722;2023-07-24T10:25:45;21.40;99.90
14555;DHT22;7364;50.870;4.722;2023-07-24T10:28:13;21.40;99.90
14555;DHT22;7364;50.870;4.722;2023-07-24T10:30:42;21.20;99.90
14555;DHT22;7364;50.870;4.722;2023-07-24T10:33:12;21.50;99.90
14555;DHT22;7364;50.870;4.722;2023-07-24T10:35:41;21.30;99.90
14555;DHT22;7364;50.870;4.722;2023-07-24T10:38:09;21.30;99.90
14555;DHT22;7364;50.870;4.722;2023-07-24T10:40:39;21.10;99.90
14555;DHT22;7364;50.870;4.722;2023-07-24T10:43:07;21.70;99.90
14555;DHT22;7364;50.870;4.722;2023-07-24T10:45:42;21.70;99.90
14555;DHT22;7364;50.870;4.722;2023-07-24T10:48:11;21.90;99.90
14555;DHT22;7364;50.870;4.722;2023-07-24T10:50:39;21.20;99.90
14555;DHT22;7364;50.870;4.722;2023-07-24T10:53:07;20.70;99.90
14555;DHT22;7364;50.870;4.722;2023-07-24T10:55:35;20.10;99.90
14555;DHT22;7364;50.870;4.722;2023-07-24T10:58:02;19.90;99.90
14555;DHT22;7364;50.870;4.722;2023-07-24T11:00:29;20.40;99.90
14555;DHT22;7364;50.870;4.722;2023-07-24T11:02:57;20.30;99.90
14555;DHT22;7364;50.870;4.722;2023-07-24T11:05:26;20.10;99.90
14555;DHT22;7364;50.870;4.722;2023-07-24T11:07:54;20.30;99.90
14555;DHT22;7364;50.870;4.722;2023-07-24T11:10:22;20.70;99.90
14555;DHT22;7364;50.870;4.722;2023-07-24T11:12:50;20.90;99.90
14555;DHT22;7364;50.870;4.722;2023-07-24T11:15:24;21.10;99.90
14555;DHT22;7364;50.870;4.722;2023-07-24T11:17:51;21.00;99.90
14555;DHT22;7364;50.870;4.722;2023-07-24T11:20:19;21.00;99.90
14555;DHT22;7364;50.870;4.722;2023-07-24T11:22:48;21.00;99.90
14555;DHT22;7364;50.870;4.722;2023-07-24T11:25:15;21.30;99.90
14555;DHT22;7364;50.870;4.722;2023-07-24T11:27:43;21.50;99.90
14555;DHT22;7364;50.870;4.722;2023-07-24T11:30:11;21.70;99.90
14555;DHT22;7364;50.870;4.722;2023-07-24T11:32:39;21.80;99.90
14555;DHT22;7364;50.870;4.722;2023-07-24T11:35:08;21.50;99.90
14555;DHT22;7364;50.870;4.722;2023-07-24T11:37:35;21.40;99.90
14555;DHT22;7364;50.870;4.722;2023-07-24T11:40:05;21.50;99.90
14555;DHT22;7364;50.870;4.722;2023-07-24T11:42:39;21.40;99.90
14555;DHT22;7364;50.870;4.722;2023-07-24T11:45:08;21.40;99.90
14555;DHT22;7364;50.870;4.722;2023-07-24T11:47:44;21.40;99.90
14555;DHT22;7364;50.870;4.722;2023-07-24T11:50:12;21.30;99.90
14555;DHT22;7364;50.870;4.722;2023-07-24T11:52:41;21.30;99.90
14555;DHT22;7364;50.870;4.722;2023-07-24T11:55:11;21.30;99.90
14555;DHT22;7364;50.870;4.722;2023-07-24T11:57:39;21.10;99.90
14555;DHT22;7364;50.870;4.722;2023-07-24T12:00:18;21.30;99.90
14555;DHT22;7364;50.870;4.722;2023-07-24T12:02:45;21.60;99.90
14555;DHT22;7364;50.870;4.722;2023-07-24T12:05:12;21.70;99.90
14555;DHT22;7364;50.870;4.722;2023-07-24T12:07:39;21.90;99.90
14555;DHT22;7364;50.870;4.722;2023-07-24T12:10:11;22.30;99.90
14555;DHT22;7364;50.870;4.722;2023-07-24T12:12:40;22.40;99.90
14555;DHT22;7364;50.870;4.722;2023-07-24T12:15:08;22.50;99.90
14555;DHT22;7364;50.870;4.722;2023-07-24T12:17:36;22.90;99.90
14555;DHT22;7364;50.870;4.722;2023-07-24T12:20:04;24.30;99.90
14555;DHT22;7364;50.870;4.722;2023-07-24T12:22:34;25.10;99.90
14555;DHT22;7364;50.870;4.722;2023-07-24T12:25:01;25.80;99.90
14555;DHT22;7364;50.870;4.722;2023-07-24T12:27:30;26.30;99.90
14555;DHT22;7364;50.870;4.722;2023-07-24T12:29:58;28.10;99.90
14555;DHT22;7364;50.870;4.722;2023-07-24T12:32:25;28.80;99.90
14555;DHT22;7364;50.870;4.722;2023-07-24T12:34:53;30.30;99.90
14555;DHT22;7364;50.870;4.722;2023-07-24T12:37:20;30.40;98.00
14555;DHT22;7364;50.870;4.722;2023-07-24T12:39:48;31.80;97.80
14555;DHT22;7364;50.870;4.722;2023-07-24T12:42:16;31.80;95.60
14555;DHT22;7364;50.870;4.722;2023-07-24T12:44:45;31.80;97.00
14555;DHT22;7364;50.870;4.722;2023-07-24T12:47:12;34.10;94.20
14555;DHT22;7364;50.870;4.722;2023-07-24T12:49:40;34.30;90.60
14555;DHT22;7364;50.870;4.722;2023-07-24T12:52:07;33.70;91.00
14555;DHT22;7364;50.870;4.722;2023-07-24T12:54:34;31.80;93.30
14555;DHT22;7364;50.870;4.722;2023-07-24T12:57:02;29.90;95.60
14555;DHT22;7364;50.870;4.722;2023-07-24T12:59:29;28.40;97.40
14555;DHT22;7364;50.870;4.722;2023-07-24T13:01:58;28.10;98.20
14555;DHT22;7364;50.870;4.722;2023-07-24T13:04:25;27.60;99.70
14555;DHT22;7364;50.870;4.722;2023-07-24T13:06:53;27.70;99.30
14555;DHT22;7364;50.870;4.722;2023-07-24T13:09:20;27.50;99.90
14555;DHT22;7364;50.870;4.722;2023-07-24T13:11:49;27.10;99.90
14555;DHT22;7364;50.870;4.722;2023-07-24T13:14:17;27.20;99.90
14555;DHT22;7364;50.870;4.722;2023-07-24T13:16:45;27.90;99.90
14555;DHT22;7364;50.870;4.722;2023-07-24T13:19:14;28.10;99.90
14555;DHT22;7364;50.870;4.722;2023-07-24T13:21:41;29.40;99.00
14555;DHT22;7364;50.870;4.722;2023-07-24T13:24:09;31.10;97.50
14555;DHT22;7364;50.870;4.722;2023-07-24T13:26:36;32.50;94.90
14555;DHT22;7364;50.870;4.722;2023-07-24T13:29:03;32.10;92.80
14555;DHT22;7364;50.870;4.722;2023-07-24T13:31:31;31.10;94.10
14555;DHT22;7364;50.870;4.722;2023-07-24T13:33:59;30.40;94.00
14555;DHT22;7364;50.870;4.722;2023-07-24T13:36:27;28.50;96.10
14555;DHT22;7364;50.870;4.722;2023-07-24T13:38:55;27.50;98.50
14555;DHT22;7364;50.870;4.722;2023-07-24T13:41:22;27.20;99.40
14555;DHT22;7364;50.870;4.722;2023-07-24T13:43:49;26.30;99.30
14555;DHT22;7364;50.870;4.722;2023-07-24T13:46:17;24.70;99.90
14555;DHT22;7364;50.870;4.722;2023-07-24T13:48:44;23.80;99.90
14555;DHT22;7364;50.870;4.722;2023-07-24T13:51:12;23.70;99.90
14555;DHT22;7364;50.870;4.722;2023-07-24T13:53:41;23.90;99.90
14555;DHT22;7364;50.870;4.722;2023-07-24T13:56:08;24.60;99.90
14555;DHT22;7364;50.870;4.722;2023-07-24T13:58:36;24.90;99.90
14555;DHT22;7364;50.870;4.722;2023-07-24T14:01:03;25.70;99.90
14555;DHT22;7364;50.870;4.722;2023-07-24T14:03:33;25.70;99.90
14555;DHT22;7364;50.870;4.722;2023-07-24T14:06:00;25.60;99.90
14555;DHT22;7364;50.870;4.722;2023-07-24T14:08:27;25.60;99.90
14555;DHT22;7364;50.870;4.722;2023-07-24T14:10:56;24.90;99.90
14555;DHT22;7364;50.870;4.722;2023-07-24T14:13:25;25.00;99.90
14555;DHT22;7364;50.870;4.722;2023-07-24T14:15:53;25.70;99.90
14555;DHT22;7364;50.870;4.722;2023-07-24T14:18:20;27.30;99.90
14555;DHT22;7364;50.870;4.722;2023-07-24T14:20:47;29.80;97.60
14555;DHT22;7364;50.870;4.722;2023-07-24T14:23:15;31.40;93.80
14555;DHT22;7364;50.870;4.722;2023-07-24T14:25:42;30.30;92.70
14555;DHT22;7364;50.870;4.722;2023-07-24T14:28:11;29.20;94.50
14555;DHT22;7364;50.870;4.722;2023-07-24T14:30:38;29.20;95.00
14555;DHT22;7364;50.870;4.722;2023-07-24T14:33:05;29.70;95.10
14555;DHT22;7364;50.870;4.722;2023-07-24T14:35:32;29.10;95.30
14555;DHT22;7364;50.870;4.722;2023-07-24T14:38:00;29.60;94.50
14555;DHT22;7364;50.870;4.722;2023-07-24T14:40:27;29.60;93.60
14555;DHT22;7364;50.870;4.722;2023-07-24T14:42:54;29.10;94.30
14555;DHT22;7364;50.870;4.722;2023-07-24T14:45:23;28.20;94.00
14555;DHT22;7364;50.870;4.722;2023-07-24T14:47:50;28.60;94.60
14555;DHT22;7364;50.870;4.722;2023-07-24T14:50:18;28.20;94.20
14555;DHT22;7364;50.870;4.722;2023-07-24T14:52:45;26.90;96.40
14555;DHT22;7364;50.870;4.722;2023-07-24T14:55:14;26.40;98.20
14555;DHT22;7364;50.870;4.722;2023-07-24T14:57:41;27.10;97.30
14555;DHT22;7364;50.870;4.722;2023-07-24T15:00:09;27.70;97.10
14555;DHT22;7364;50.870;4.722;2023-07-24T15:02:38;27.70;95.20
14555;DHT22;7364;50.870;4.722;2023-07-24T15:05:06;27.00;95.40
14555;DHT22;7364;50.870;4.722;2023-07-24T15:07:33;25.80;98.30
14555;DHT22;7364;50.870;4.722;2023-07-24T15:10:00;25.10;99.00
14555;DHT22;7364;50.870;4.722;2023-07-24T15:12:27;23.40;99.90
14555;DHT22;7364;50.870;4.722;2023-07-24T15:14:56;23.00;99.90
14555;DHT22;7364;50.870;4.722;2023-07-24T15:17:23;22.30;99.90
14555;DHT22;7364;50.870;4.722;2023-07-24T15:19:52;21.70;99.90
14555;DHT22;7364;50.870;4.722;2023-07-24T15:22:19;21.70;99.90
14555;DHT22;7364;50.870;4.722;2023-07-24T15:24:46;21.30;99.90
14555;DHT22;7364;50.870;4.722;2023-07-24T15:27:13;20.90;99.90
14555;DHT22;7364;50.870;4.722;2023-07-24T15:29:41;20.80;99.90
14555;DHT22;7364;50.870;4.722;2023-07-24T15:32:08;20.80;99.90
14555;DHT22;7364;50.870;4.722;2023-07-24T15:34:35;20.40;99.90
14555;DHT22;7364;50.870;4.722;2023-07-24T15:37:04;20.10;99.90
14555;DHT22;7364;50.870;4.722;2023-07-24T15:39:31;20.00;99.90
14555;DHT22;7364;50.870;4.722;2023-07-24T15:41:58;19.70;99.90
14555;DHT22;7364;50.870;4.722;2023-07-24T15:44:26;19.40;99.90
14555;DHT22;7364;50.870;4.722;2023-07-24T15:46:53;19.00;99.90
14555;DHT22;7364;50.870;4.722;2023-07-24T15:49:20;18.70;99.90